createdAt,value
2018-03-01T00:00:08.267Z,50.5
2018-03-01T00:05:10.933Z,50.6
2018-03-01T00:10:05.251Z,50.9
2018-03-01T00:15:18.152Z,50.8
2018-03-01T00:20:03.522Z,50.8
2018-03-01T00:25:07.855Z,51
2018-03-01T00:30:05.772Z,51
2018-03-01T00:35:05.787Z,51.1
2018-03-01T00:40:03.538Z,51.1
2018-03-01T00:45:02.685Z,38.2
2018-03-01T00:50:03.022Z,50.9
2018-03-01T00:55:03.214Z,50.9
2018-03-01T01:00:03.625Z,51
2018-03-01T01:05:10.380Z,51.1
2018-03-01T01:10:03.082Z,51.1
2018-03-01T01:15:03.405Z,51
2018-03-01T01:20:07.834Z,51.2
2018-03-01T01:25:05.502Z,51.4
2018-03-01T01:30:02.748Z,51.4
2018-03-01T01:35:05.673Z,51.4
2018-03-01T01:40:03.453Z,51.3
2018-03-01T01:45:05.158Z,51.7
2018-03-01T01:50:06.059Z,51.7
2018-03-01T01:55:02.600Z,51.6
2018-03-01T02:00:10.478Z,52.2
2018-03-01T02:05:03.057Z,52.2
2018-03-01T02:10:05.313Z,52.5
2018-03-01T02:15:10.552Z,52.6
2018-03-01T02:20:02.976Z,52.6
2018-03-01T02:25:08.160Z,53
2018-03-01T02:30:05.969Z,53.1
2018-03-01T02:35:03.560Z,53
2018-03-01T02:40:03.316Z,53.1
2018-03-01T02:45:08.582Z,53.3
2018-03-01T02:50:13.058Z,53.5
2018-03-01T02:55:05.629Z,53.5
2018-03-01T03:00:03.009Z,53.5
2018-03-01T03:05:08.065Z,53.6
2018-03-01T03:10:02.725Z,53.7
2018-03-01T03:15:35.772Z,53.9
2018-03-01T03:20:05.743Z,54.1
2018-03-01T03:25:05.829Z,54.2
2018-03-01T03:30:03.085Z,54.2
2018-03-01T03:35:05.882Z,54.3
2018-03-01T03:40:07.999Z,54.4
2018-03-01T03:45:05.918Z,54.7
2018-03-01T03:50:08.517Z,54.8
2018-03-01T03:55:07.960Z,54.9
2018-03-01T04:00:03.459Z,54.9
2018-03-01T04:05:10.478Z,55.1
2018-03-01T04:10:13.664Z,55.3
2018-03-01T04:15:03.033Z,55.3
2018-03-01T04:20:13.924Z,55.4
2018-03-01T04:25:05.618Z,55.8
2018-03-01T04:30:05.658Z,56
2018-03-01T04:35:03.560Z,55.9
2018-03-01T04:40:18.744Z,56.3
2018-03-01T04:45:05.556Z,56.5
2018-03-01T04:50:05.621Z,56.8
2018-03-01T04:55:03.483Z,56.8
2018-03-01T05:00:15.723Z,57.3
2018-03-01T05:05:03.529Z,57.3
2018-03-01T05:10:06.073Z,57.8
2018-03-01T05:15:05.550Z,58
2018-03-01T05:20:05.740Z,58.2
2018-03-01T05:25:07.744Z,58.2
2018-03-01T05:30:03.380Z,58.3
2018-03-01T05:35:02.881Z,58.3
2018-03-01T05:40:08.048Z,58.7
2018-03-01T05:45:03.480Z,58.7
2018-03-01T05:50:02.958Z,58.8
2018-03-01T05:55:21.085Z,58.8
2018-03-01T06:00:06.192Z,59
2018-03-01T06:05:08.105Z,58.9
2018-03-01T06:10:08.166Z,58.9
2018-03-01T06:15:03.525Z,58.9
2018-03-01T06:20:13.297Z,58.9
2018-03-01T06:25:06.103Z,58.7
2018-03-01T06:30:07.860Z,58.5
2018-03-01T06:35:08.209Z,58.3
2018-03-01T06:40:10.890Z,58
2018-03-01T06:45:03.604Z,58
2018-03-01T06:50:08.270Z,57.6
2018-03-01T06:55:06.120Z,57.5
2018-03-01T07:00:13.864Z,57.3
2018-03-01T07:05:20.808Z,56.8
2018-03-01T07:10:10.528Z,56.5
2018-03-01T07:15:03.341Z,56.6
2018-03-01T07:20:10.783Z,56.1
2018-03-01T07:25:03.371Z,56.1
2018-03-01T07:30:13.035Z,55.8
2018-03-01T07:35:05.930Z,55.7
2018-03-01T07:40:13.198Z,55.3
2018-03-01T07:45:10.958Z,55.1
2018-03-01T07:50:11.120Z,54.2
2018-03-01T07:55:02.893Z,54.2
2018-03-01T08:00:08.586Z,53.7
2018-03-01T08:05:03.012Z,53.7
2018-03-01T08:10:13.183Z,52.9
2018-03-01T08:15:13.662Z,52.9
2018-03-01T08:20:05.784Z,52.8
2018-03-01T08:25:10.320Z,52.5
2018-03-01T08:30:05.396Z,51.8
2018-03-01T08:35:05.820Z,51.2
2018-03-01T08:40:05.538Z,51.2
2018-03-01T08:45:36.217Z,51.1
2018-03-01T08:50:25.454Z,50.3
2018-03-01T08:55:18.349Z,49.6
2018-03-01T09:00:02.895Z,49.6
2018-03-01T09:05:05.880Z,48.2
2018-03-01T09:10:02.982Z,48.2
2018-03-01T09:15:03.489Z,47.7
2018-03-01T09:20:10.667Z,47.3
2018-03-01T09:25:21.512Z,47
2018-03-01T09:30:05.626Z,46.4
2018-03-01T09:35:03.502Z,46.4
2018-03-01T09:40:08.704Z,45.9
2018-03-01T09:45:05.564Z,45
2018-03-01T09:50:10.698Z,45.1
2018-03-01T09:55:03.606Z,45.1
2018-03-01T10:00:08.187Z,44.2
2018-03-01T10:05:05.299Z,44
2018-03-01T10:10:10.992Z,44
2018-03-01T10:15:05.412Z,43.4
2018-03-01T10:20:05.573Z,43.2
2018-03-01T10:25:03.533Z,43.2
2018-03-01T10:30:03.275Z,42.6
2018-03-01T10:35:06.124Z,40.6
2018-03-01T10:40:03.144Z,40.6
2018-03-01T10:45:13.768Z,39.8
2018-03-01T10:50:05.824Z,39.3
2018-03-01T10:55:02.846Z,39.3
2018-03-01T11:00:13.573Z,39.5
2018-03-01T11:05:02.948Z,39.5
2018-03-01T11:10:02.948Z,39.4
2018-03-01T11:15:08.502Z,38.3
2018-03-01T11:20:05.643Z,38.4
2018-03-01T11:25:07.733Z,37.4
2018-03-01T11:30:05.848Z,37.8
2018-03-01T11:35:02.902Z,37.8
2018-03-01T11:40:05.452Z,37.5
2018-03-01T11:45:08.618Z,36.8
2018-03-01T11:50:05.729Z,37
2018-03-01T11:55:02.762Z,37.1
2018-03-01T12:00:08.492Z,36
2018-03-01T12:05:05.412Z,36
2018-03-01T12:10:03.408Z,35.9
2018-03-01T12:15:20.603Z,35.3
2018-03-01T12:20:08.289Z,35.3
2018-03-01T12:25:02.744Z,35.2
2018-03-01T12:30:03.445Z,35.3
2018-03-01T12:35:02.833Z,34.7
2018-03-01T12:40:02.916Z,34.6
2018-03-01T12:45:05.899Z,33.2
2018-03-01T12:50:03.459Z,33.2
2018-03-01T12:55:05.532Z,33.4
2018-03-01T13:00:05.650Z,32.3
2018-03-01T13:05:08.660Z,32.3
2018-03-01T13:10:05.250Z,31.8
2018-03-01T13:15:03.397Z,31.7
2018-03-01T13:20:05.649Z,31.6
2018-03-01T13:25:02.701Z,31.6
2018-03-01T13:30:03.359Z,31.2
2018-03-01T13:35:05.296Z,31.2
2018-03-01T13:40:05.967Z,30.8
2018-03-01T13:45:10.721Z,31
2018-03-01T13:50:10.899Z,31
2018-03-01T13:55:15.478Z,30.8
2018-03-01T14:00:08.139Z,30.2
2018-03-01T14:05:11.185Z,30.1
2018-03-01T14:10:28.600Z,29.4
2018-03-01T14:15:03.190Z,29.5
2018-03-01T14:20:02.853Z,29.2
2018-03-01T14:25:05.910Z,29.5
2018-03-01T14:30:03.508Z,29.5
2018-03-01T14:35:08.231Z,28.8
2018-03-01T14:40:03.315Z,28.8
2018-03-01T14:45:05.383Z,29.6
2018-03-01T14:50:05.527Z,29.7
2018-03-01T14:55:08.560Z,29.6
2018-03-01T15:00:28.419Z,29.5
2018-03-01T15:05:05.541Z,30
2018-03-01T15:10:08.682Z,30.1
2018-03-01T15:15:05.672Z,30.4
2018-03-01T15:20:03.340Z,30.3
2018-03-01T15:25:02.971Z,30.1
2018-03-01T15:30:03.537Z,30.7
2018-03-01T15:35:05.682Z,30.5
2018-03-01T15:40:07.987Z,29.6
2018-03-01T15:45:05.858Z,28.2
2018-03-01T15:50:05.998Z,28.4
2018-03-01T15:55:03.188Z,28.4
2018-03-01T16:00:05.370Z,29.8
2018-03-01T16:05:03.368Z,29.8
2018-03-01T16:10:11.106Z,33
2018-03-01T16:15:03.018Z,33.1
2018-03-01T16:20:16.360Z,35.5
2018-03-01T16:25:10.811Z,36.6
2018-03-01T16:30:05.923Z,37.4
2018-03-01T16:35:08.981Z,38
2018-03-01T16:40:05.574Z,38.6
2018-03-01T16:45:05.206Z,39.1
2018-03-01T16:50:05.393Z,39.7
2018-03-01T16:55:08.427Z,39.9
2018-03-01T17:00:02.985Z,39.9
2018-03-01T17:05:06.060Z,41
2018-03-01T17:10:03.260Z,41
2018-03-01T17:15:02.769Z,41.3
2018-03-01T17:20:08.527Z,42
2018-03-01T17:25:03.114Z,42
2018-03-01T17:30:05.200Z,42.4
2018-03-01T17:35:08.318Z,42.7
2018-03-01T17:40:08.384Z,42.9
2018-03-01T17:45:02.849Z,42.9
2018-03-01T17:50:08.510Z,43.1
2018-03-01T17:55:02.938Z,43.1
2018-03-01T18:00:13.659Z,43.1
2018-03-01T18:05:18.277Z,43.1
2018-03-01T18:10:13.348Z,43.4
2018-03-01T18:15:10.373Z,43.8
2018-03-01T18:20:03.135Z,43.8
2018-03-01T18:25:06.206Z,44.2
2018-03-01T18:30:10.598Z,44.5
2018-03-01T18:35:03.472Z,44.5
2018-03-01T18:40:03.538Z,44.7
2018-03-01T18:45:03.150Z,44.9
2018-03-01T18:50:02.822Z,45.1
2018-03-01T18:55:03.288Z,45.2
2018-03-01T19:00:02.893Z,45.2
2018-03-01T19:05:03.360Z,45.4
2018-03-01T19:10:03.438Z,45.4
2018-03-01T19:15:13.084Z,45.7
2018-03-01T19:20:02.727Z,45.7
2018-03-01T19:25:08.311Z,45.7
2018-03-01T19:30:02.916Z,45.7
2018-03-01T19:35:10.959Z,45.7
2018-03-01T19:40:02.980Z,45.7
2018-03-01T19:45:08.580Z,45.8
2018-03-01T19:50:05.852Z,45.9
2018-03-01T19:55:05.256Z,46
2018-03-01T20:00:05.437Z,46.1
2018-03-01T20:05:05.948Z,46.1
2018-03-01T20:10:08.017Z,46.3
2018-03-01T20:15:06.177Z,46.5
2018-03-01T20:20:05.627Z,46.6
2018-03-01T20:25:03.625Z,46.6
2018-03-01T20:30:05.773Z,46.7
2018-03-01T20:35:05.268Z,46.9
2018-03-01T20:40:02.701Z,46.9
2018-03-01T20:45:03.220Z,47
2018-03-01T20:50:12.882Z,47.2
2018-03-01T20:55:03.537Z,47.2
2018-03-01T21:00:05.764Z,47.3
2018-03-01T21:05:05.260Z,47.5
2018-03-01T21:10:05.945Z,47.7
2018-03-01T21:15:05.737Z,47.7
2018-03-01T21:20:05.441Z,47.9
2018-03-01T21:25:03.356Z,47.9
2018-03-01T21:30:08.052Z,48.1
2018-03-01T21:35:05.260Z,48.2
2018-03-01T21:40:03.230Z,48.1
2018-03-01T21:45:10.332Z,48.6
2018-03-01T21:50:07.926Z,48.7
2018-03-01T21:55:10.924Z,48.8
2018-03-01T22:00:03.475Z,48.8
2018-03-01T22:05:08.175Z,49.2
2018-03-01T22:10:03.163Z,49.2
2018-03-01T22:15:11.209Z,49.4
2018-03-01T22:20:02.793Z,49.4
2018-03-01T22:25:03.274Z,49.6
2018-03-01T22:30:07.844Z,50.2
2018-03-01T22:35:10.870Z,50.1
2018-03-01T22:40:10.753Z,50.5
2018-03-01T22:45:07.751Z,50.5
2018-03-01T22:50:05.839Z,50.6
2018-03-01T22:55:02.822Z,50.6
2018-03-01T23:00:03.355Z,50.8
2018-03-01T23:05:02.847Z,50.9
2018-03-01T23:10:02.883Z,51
2018-03-01T23:15:10.937Z,51.5
2018-03-01T23:20:06.101Z,51.5
2018-03-01T23:25:05.600Z,51.5
2018-03-01T23:30:05.869Z,51.3
2018-03-01T23:35:06.150Z,51.6
2018-03-01T23:40:03.176Z,51.6
2018-03-01T23:45:13.736Z,51.8
2018-03-01T23:50:03.280Z,51.8
2018-03-01T23:55:05.321Z,51.9
